createdAt,value
2023-11-01T00:01:13.703Z,100314.22
2023-11-01T00:03:41.570Z,100313.91
2023-11-01T00:06:09.631Z,100319.47
2023-11-01T00:08:37.363Z,100321.31
2023-11-01T00:11:05.597Z,100320.63
2023-11-01T00:13:33.402Z,100323.31
2023-11-01T00:16:02.531Z,100329.88
2023-11-01T00:18:30.246Z,100326.66
2023-11-01T00:20:57.927Z,100327.50
2023-11-01T00:23:25.643Z,100317.97
2023-11-01T00:25:53.500Z,100321.28
2023-11-01T00:28:21.241Z,100330.88
2023-11-01T00:30:49.107Z,100326.84
2023-11-01T00:33:18.303Z,100313.41
2023-11-01T00:35:46.108Z,100307.69
2023-11-01T00:38:13.868Z,100308.03
2023-11-01T00:40:41.691Z,100306.34
2023-11-01T00:43:09.428Z,100313.25
2023-11-01T00:45:37.096Z,100308.03
2023-11-01T00:48:05.495Z,100311.56
2023-11-01T00:50:34.646Z,100305.19
2023-11-01T00:53:02.342Z,100297.13
2023-11-01T00:55:30.031Z,100294.59
2023-11-01T00:57:57.749Z,100287.53
2023-11-01T01:00:25.459Z,100290.22
2023-11-01T01:02:53.248Z,100285.00
2023-11-01T01:05:21.115Z,100283.31
2023-11-01T01:07:50.669Z,100287.38
2023-11-01T01:10:18.549Z,100285.03
2023-11-01T01:12:46.614Z,100279.81
2023-11-01T01:15:14.448Z,100279.31
2023-11-01T01:17:42.193Z,100265.38
2023-11-01T01:20:11.170Z,100267.72
2023-11-01T01:22:38.803Z,100266.53
2023-11-01T01:25:08.528Z,100261.53
2023-11-01T01:27:36.243Z,100259.00
2023-11-01T01:30:04.465Z,100254.28
2023-11-01T01:32:33.580Z,100257.31
2023-11-01T01:35:02.023Z,100257.47
2023-11-01T01:37:30.119Z,100251.94
2023-11-01T01:39:57.865Z,100249.09
2023-11-01T01:42:27.132Z,100247.41
2023-11-01T01:44:54.838Z,100235.13
2023-11-01T01:47:22.832Z,100235.44
2023-11-01T01:49:51.812Z,100229.06
2023-11-01T01:52:20.416Z,100229.44
2023-11-01T01:54:48.621Z,100231.94
2023-11-01T01:57:17.262Z,100224.88
2023-11-01T01:59:46.360Z,100222.38
2023-11-01T02:02:15.225Z,100218.16
2023-11-01T02:04:43.130Z,100207.41
2023-11-01T02:07:11.248Z,100218.00
2023-11-01T02:09:39.030Z,100210.94
2023-11-01T02:12:07.078Z,100215.16
2023-11-01T02:14:34.866Z,100204.38
2023-11-01T02:17:07.633Z,100202.53
2023-11-01T02:19:35.546Z,100201.19
2023-11-01T02:22:03.465Z,100202.19
2023-11-01T02:24:32.548Z,100201.53
2023-11-01T02:27:01.903Z,100202.53
2023-11-01T02:29:30.395Z,100194.16
2023-11-01T02:31:58.144Z,100182.88
2023-11-01T02:34:25.935Z,100182.38
2023-11-01T02:36:53.634Z,100190.25
2023-11-01T02:39:21.297Z,100178.50
2023-11-01T02:41:50.424Z,100178.00
2023-11-01T02:44:18.160Z,100168.03
2023-11-01T02:46:45.820Z,100165.34
2023-11-01T02:49:13.554Z,100158.13
2023-11-01T02:51:41.677Z,100158.78
2023-11-01T02:54:09.539Z,100159.44
2023-11-01T02:56:37.278Z,100150.03
2023-11-01T02:59:06.472Z,100147.66
2023-11-01T03:01:34.763Z,100141.28
2023-11-01T03:04:02.613Z,100138.28
2023-11-01T03:06:30.333Z,100142.50
2023-11-01T03:08:58.020Z,100139.78
2023-11-01T03:11:25.759Z,100135.59
2023-11-01T03:13:53.468Z,100139.97
2023-11-01T03:16:22.531Z,100136.06
2023-11-01T03:18:50.262Z,100128.69
2023-11-01T03:21:17.930Z,100127.06
2023-11-01T03:23:45.626Z,100131.06
2023-11-01T03:26:13.434Z,100129.75
2023-11-01T03:28:41.145Z,100130.09
2023-11-01T03:31:08.946Z,100124.38
2023-11-01T03:33:37.942Z,100119.69
2023-11-01T03:36:08.225Z,100117.19
2023-11-01T03:38:36.247Z,100116.66
2023-11-01T03:41:04.706Z,100114.66
2023-11-01T03:43:32.394Z,100117.69
2023-11-01T03:46:00.176Z,100112.13
2023-11-01T03:48:28.336Z,100114.31
2023-11-01T03:50:57.514Z,100111.47
2023-11-01T03:53:25.580Z,100114.31
2023-11-01T03:55:53.376Z,100107.94
2023-11-01T03:58:21.084Z,100106.94
2023-11-01T04:00:48.778Z,100102.56
2023-11-01T04:03:16.878Z,100106.75
2023-11-01T04:05:44.753Z,100103.06
2023-11-01T04:08:13.958Z,100097.03
2023-11-01T04:10:41.698Z,100091.47
2023-11-01T04:13:09.416Z,100087.75
2023-11-01T04:15:37.266Z,100088.28
2023-11-01T04:18:05.304Z,100093.44
2023-11-01T04:20:33.085Z,100080.84
2023-11-01T04:23:00.763Z,100082.38
2023-11-01T04:25:30.238Z,100073.59
2023-11-01T04:27:58.774Z,100079.16
2023-11-01T04:30:27.808Z,100075.97
2023-11-01T04:32:55.516Z,100078.31
2023-11-01T04:35:23.203Z,100079.81
2023-11-01T04:37:50.918Z,100071.22
2023-11-01T04:40:20.049Z,100065.66
2023-11-01T04:42:49.200Z,100057.94
2023-11-01T04:45:16.885Z,100055.06
2023-11-01T04:47:45.561Z,100052.75
2023-11-01T04:50:15.619Z,100048.00
2023-11-01T04:52:45.023Z,100049.88
2023-11-01T04:55:13.078Z,100043.13
2023-11-01T04:57:43.030Z,100048.69
2023-11-01T05:00:17.324Z,100045.00
2023-11-01T05:02:47.160Z,100038.78
2023-11-01T05:05:15.509Z,100045.13
2023-11-01T05:07:44.293Z,100041.22
2023-11-01T05:10:12.010Z,100034.53
2023-11-01T05:12:39.722Z,100034.38
2023-11-01T05:15:10.062Z,100038.22
2023-11-01T05:17:39.212Z,100029.81
2023-11-01T05:20:08.346Z,100027.47
2023-11-01T05:22:36.669Z,100023.78
2023-11-01T05:25:14.359Z,100020.53
2023-11-01T05:27:42.506Z,100009.31
2023-11-01T05:30:15.507Z,100000.41
2023-11-01T05:32:46.725Z,100001.06
2023-11-01T05:35:14.985Z,100003.94
2023-11-01T05:37:43.043Z,100004.94
2023-11-01T05:40:15.420Z,100000.25
2023-11-01T05:42:44.842Z,99992.81
2023-11-01T05:45:16.964Z,99986.41
2023-11-01T05:47:51.828Z,99990.13
2023-11-01T05:50:21.098Z,99986.63
2023-11-01T05:52:48.877Z,99978.84
2023-11-01T05:55:24.041Z,99971.63
2023-11-01T05:57:58.136Z,99979.00
2023-11-01T06:00:25.822Z,99971.13
2023-11-01T06:02:55.149Z,99975.31
2023-11-01T06:05:24.008Z,99982.38
2023-11-01T06:07:52.638Z,99974.94
2023-11-01T06:10:20.674Z,99967.38
2023-11-01T06:12:48.497Z,99971.91
2023-11-01T06:15:16.457Z,99964.84
2023-11-01T06:17:44.414Z,99963.66
2023-11-01T06:20:13.825Z,99965.97
2023-11-01T06:22:41.630Z,99970.88
2023-11-01T06:25:11.599Z,99960.13
2023-11-01T06:27:39.725Z,99957.72
2023-11-01T06:30:08.612Z,99963.41
2023-11-01T06:32:37.837Z,99963.94
2023-11-01T06:35:06.907Z,99967.09
2023-11-01T06:37:36.409Z,99963.22
2023-11-01T06:40:04.762Z,99953.31
2023-11-01T06:42:32.500Z,99958.81
2023-11-01T06:45:00.199Z,99951.19
2023-11-01T06:47:27.941Z,99954.09
2023-11-01T06:49:55.739Z,99958.75
2023-11-01T06:52:23.428Z,99952.97
2023-11-01T06:54:52.685Z,99944.91
2023-11-01T06:57:20.410Z,99949.84
2023-11-01T06:59:48.216Z,99950.50
2023-11-01T07:02:16.016Z,99951.72
2023-11-01T07:04:43.750Z,99948.75
2023-11-01T07:07:14.744Z,99951.28
2023-11-01T07:09:43.255Z,99953.78
2023-11-01T07:12:12.368Z,99954.25
2023-11-01T07:14:40.110Z,99954.53
2023-11-01T07:17:07.895Z,99954.16
2023-11-01T07:19:35.607Z,99955.63
2023-11-01T07:22:03.751Z,99949.50
2023-11-01T07:24:31.663Z,99955.09
2023-11-01T07:26:59.458Z,99949.59
2023-11-01T07:29:28.634Z,99953.13
2023-11-01T07:31:57.530Z,99949.69
2023-11-01T07:34:25.708Z,99952.59
2023-11-01T07:36:53.349Z,99945.16
2023-11-01T07:39:21.089Z,99951.28
2023-11-01T07:41:48.906Z,99940.69
2023-11-01T07:44:16.702Z,99944.22
2023-11-01T07:46:45.784Z,99944.88
2023-11-01T07:49:13.660Z,99949.88
2023-11-01T07:51:42.099Z,99947.00
2023-11-01T07:54:10.621Z,99950.38
2023-11-01T07:56:38.495Z,99932.88
2023-11-01T07:59:06.453Z,99935.78
2023-11-01T08:01:34.137Z,99928.06
2023-11-01T08:04:03.332Z,99934.66
2023-11-01T08:06:31.056Z,99931.88
2023-11-01T08:08:59.616Z,99932.34
2023-11-01T08:11:27.495Z,99929.09
2023-11-01T08:13:55.290Z,99919.22
2023-11-01T08:16:23.073Z,99915.69
2023-11-01T08:18:50.771Z,99909.38
2023-11-01T08:21:19.788Z,99920.69
2023-11-01T08:23:47.644Z,99926.50
2023-11-01T08:26:20.332Z,99914.03
2023-11-01T08:28:48.298Z,99923.03
2023-11-01T08:31:16.304Z,99920.78
2023-11-01T08:33:44.959Z,99923.88
2023-11-01T08:36:13.086Z,99923.88
2023-11-01T08:38:42.571Z,99913.16
2023-11-01T08:41:10.452Z,99908.97
2023-11-01T08:43:38.303Z,99912.69
2023-11-01T08:46:06.563Z,99912.63
2023-11-01T08:48:34.490Z,99899.78
2023-11-01T08:51:02.228Z,99906.66
2023-11-01T08:53:32.254Z,99899.41
2023-11-01T08:56:01.958Z,99897.81
2023-11-01T08:58:29.862Z,99905.69
2023-11-01T09:01:01.204Z,99904.84
2023-11-01T09:03:30.762Z,99902.63
2023-11-01T09:05:58.738Z,99903.28
2023-11-01T09:08:26.537Z,99896.47
2023-11-01T09:10:54.834Z,99901.69
2023-11-01T09:13:24.601Z,99896.72
2023-11-01T09:15:52.357Z,99900.06
2023-11-01T09:18:22.565Z,99898.41
2023-11-01T09:20:50.854Z,99894.88
2023-11-01T09:23:20.113Z,99888.00
2023-11-01T09:25:47.866Z,99886.59
2023-11-01T09:28:15.777Z,99883.72
2023-11-01T09:30:45.070Z,99884.81
2023-11-01T09:33:12.958Z,99885.81
2023-11-01T09:35:40.862Z,99878.81
2023-11-01T09:38:09.859Z,99887.63
2023-11-01T09:40:37.647Z,99877.44
2023-11-01T09:43:06.665Z,99891.78
2023-11-01T09:45:34.712Z,99887.88
2023-11-01T09:48:04.135Z,99889.56
2023-11-01T09:50:36.497Z,99869.63
2023-11-01T09:53:05.111Z,99868.44
2023-11-01T09:55:33.215Z,99866.41
2023-11-01T09:58:01.841Z,99866.03
2023-11-01T10:00:30.542Z,99860.22
2023-11-01T10:02:59.149Z,99850.84
2023-11-01T10:05:28.463Z,99853.56
2023-11-01T10:07:57.575Z,99852.78
2023-11-01T10:10:25.313Z,99859.19
2023-11-01T10:12:54.076Z,99858.53
2023-11-01T10:15:23.338Z,99854.00
2023-11-01T10:17:52.768Z,99857.75
2023-11-01T10:20:24.920Z,99857.75
2023-11-01T10:22:54.061Z,99854.28
2023-11-01T10:25:22.266Z,99852.00
2023-11-01T10:27:50.972Z,99856.97
2023-11-01T10:30:19.938Z,99839.81
2023-11-01T10:32:58.878Z,99838.78
2023-11-01T10:35:27.358Z,99827.69
2023-11-01T10:37:59.508Z,99828.53
2023-11-01T10:40:28.894Z,99823.56
2023-11-01T10:42:59.631Z,99818.56
2023-11-01T10:45:27.488Z,99803.59
2023-11-01T10:47:55.632Z,99808.09
2023-11-01T10:50:24.721Z,99806.44
2023-11-01T10:52:52.831Z,99799.31
2023-11-01T10:55:25.275Z,99795.41
2023-11-01T10:57:53.779Z,99792.50
2023-11-01T11:00:27.975Z,99789.84
2023-11-01T11:03:00.504Z,99785.91
2023-11-01T11:05:29.934Z,99791.94
2023-11-01T11:07:58.666Z,99785.72
2023-11-01T11:10:28.886Z,99776.16
2023-11-01T11:13:39.414Z,99778.91
2023-11-01T11:16:09.766Z,99766.88
2023-11-01T11:19:00.213Z,99776.44
2023-11-01T11:22:04.151Z,99773.13
2023-11-01T11:24:53.587Z,99753.22
2023-11-01T11:27:54.182Z,99750.94
2023-11-01T11:30:58.504Z,99753.66
2023-11-01T11:33:26.451Z,99746.44
2023-11-01T11:36:15.038Z,99738.00
2023-11-01T11:38:53.578Z,99737.38
2023-11-01T11:41:22.715Z,99731.34
2023-11-01T11:44:05.038Z,99722.22
2023-11-01T11:46:35.996Z,99714.72
2023-11-01T11:49:05.869Z,99704.28
2023-11-01T11:51:35.879Z,99705.91
2023-11-01T11:54:14.880Z,99705.34
2023-11-01T11:56:43.040Z,99697.44
2023-11-01T11:59:12.981Z,99696.78
2023-11-01T12:01:40.725Z,99692.28
2023-11-01T12:04:09.646Z,99693.53
2023-11-01T12:06:45.212Z,99688.72
2023-11-01T12:09:19.944Z,99685.66
2023-11-01T12:11:49.253Z,99683.78
2023-11-01T12:14:22.589Z,99692.09
2023-11-01T12:16:51.398Z,99682.56
2023-11-01T12:19:20.304Z,99684.22
2023-11-01T12:21:49.925Z,99684.63
2023-11-01T12:24:18.426Z,99683.59
2023-11-01T12:27:04.958Z,99671.97
2023-11-01T12:29:35.945Z,99657.84
2023-11-01T12:32:08.305Z,99661.78
2023-11-01T12:34:37.608Z,99659.06
2023-11-01T12:37:09.120Z,99656.56
2023-11-01T12:39:37.039Z,99652.44
2023-11-01T12:42:24.822Z,99648.47
2023-11-01T12:44:55.826Z,99642.06
2023-11-01T12:47:25.409Z,99637.69
2023-11-01T12:49:54.918Z,99635.81
2023-11-01T12:52:22.808Z,99626.69
2023-11-01T12:54:50.565Z,99629.78
2023-11-01T12:57:18.690Z,99626.25
2023-11-01T12:59:46.538Z,99611.50
2023-11-01T13:02:15.757Z,99616.69
2023-11-01T13:04:44.349Z,99605.06
2023-11-01T13:07:12.572Z,99604.66
2023-11-01T13:09:40.320Z,99591.94
2023-11-01T13:12:10.761Z,99593.84
2023-11-01T13:14:39.613Z,99591.94
2023-11-01T13:17:07.651Z,99585.50
2023-11-01T13:19:36.996Z,99582.63
2023-11-01T13:22:05.193Z,99575.13
2023-11-01T13:24:32.936Z,99567.63
2023-11-01T13:27:04.945Z,99560.16
2023-11-01T13:29:32.714Z,99555.78
2023-11-01T13:32:00.621Z,99547.91
2023-11-01T13:34:28.322Z,99543.09
2023-11-01T13:36:57.360Z,99541.44
2023-11-01T13:39:25.378Z,99531.91
2023-11-01T13:41:53.755Z,99531.69
2023-11-01T13:44:21.822Z,99523.16
2023-11-01T13:46:49.728Z,99514.00
2023-11-01T13:49:22.284Z,99518.59
2023-11-01T13:51:55.666Z,99509.66
2023-11-01T13:54:24.894Z,99509.84
2023-11-01T13:56:59.082Z,99514.00
2023-11-01T13:59:35.960Z,99509.44
2023-11-01T14:02:06.386Z,99504.44
2023-11-01T14:04:44.705Z,99498.63
2023-11-01T14:07:13.424Z,99496.34
2023-11-01T14:09:46.520Z,99485.75
2023-11-01T14:12:14.385Z,99484.28
2023-11-01T14:14:44.466Z,99487.19
2023-11-01T14:17:12.419Z,99481.81
2023-11-01T14:19:40.149Z,99474.97
2023-11-01T14:22:07.848Z,99478.69
2023-11-01T14:24:35.692Z,99479.09
2023-11-01T14:27:07.375Z,99473.69
2023-11-01T14:29:35.766Z,99471.19
2023-11-01T14:32:04.719Z,99474.97
2023-11-01T14:34:32.900Z,99465.56
2023-11-01T14:37:11.098Z,99466.00
2023-11-01T14:39:39.647Z,99453.72
2023-11-01T14:42:10.209Z,99448.53
2023-11-01T14:44:41.076Z,99453.53
2023-11-01T14:47:11.156Z,99452.06
2023-11-01T14:49:39.719Z,99439.59
2023-11-01T14:52:08.502Z,99447.09
2023-11-01T14:54:41.943Z,99430.44
2023-11-01T14:57:17.193Z,99432.13
2023-11-01T14:59:45.091Z,99431.94
2023-11-01T15:02:12.953Z,99430.25
2023-11-01T15:04:40.705Z,99426.72
2023-11-01T15:07:08.620Z,99427.56
2023-11-01T15:09:36.371Z,99430.69
2023-11-01T15:12:03.135Z,99427.34
2023-11-01T15:14:33.072Z,99415.72
2023-11-01T15:17:00.917Z,99417.97
2023-11-01T15:19:28.994Z,99419.63
2023-11-01T15:21:57.490Z,99417.56
2023-11-01T15:24:26.263Z,99407.22
2023-11-01T15:26:55.418Z,99412.81
2023-11-01T15:29:23.436Z,99406.75
2023-11-01T15:31:53.752Z,99408.81
2023-11-01T15:34:21.737Z,99408.00
2023-11-01T15:36:49.817Z,99405.09
2023-11-01T15:39:18.188Z,99402.56
2023-11-01T15:41:45.910Z,99401.78
2023-11-01T15:44:13.663Z,99398.00
2023-11-01T15:46:44.391Z,99386.63
2023-11-01T15:49:17.394Z,99399.88
2023-11-01T15:51:47.068Z,99399.06
2023-11-01T15:54:16.949Z,99403.16
2023-11-01T15:56:46.185Z,99403.16
2023-11-01T15:59:15.328Z,99385.56
2023-11-01T16:01:45.276Z,99383.25
2023-11-01T16:04:13.145Z,99371.63
2023-11-01T16:06:49.358Z,99365.84
2023-11-01T16:09:19.366Z,99360.84
2023-11-01T16:11:49.130Z,99366.22
2023-11-01T16:14:17.719Z,99367.50
2023-11-01T16:16:47.520Z,99371.81
2023-11-01T16:19:15.313Z,99352.53
2023-11-01T16:21:45.630Z,99362.31
2023-11-01T16:24:14.138Z,99363.53
2023-11-01T16:26:42.312Z,99371.44
2023-11-01T16:29:10.050Z,99365.59
2023-11-01T16:31:37.811Z,99379.06
2023-11-01T16:34:05.656Z,99367.06
2023-11-01T16:36:33.382Z,99363.31
2023-11-01T16:39:02.546Z,99366.84
2023-11-01T16:41:30.591Z,99363.13
2023-11-01T16:43:58.354Z,99360.19
2023-11-01T16:46:26.511Z,99369.72
2023-11-01T16:48:54.347Z,99371.78
2023-11-01T16:51:22.216Z,99353.97
2023-11-01T16:53:50.026Z,99361.41
2023-11-01T16:56:19.197Z,99354.97
2023-11-01T16:58:46.994Z,99372.16
2023-11-01T17:01:14.789Z,99373.00
2023-11-01T17:03:42.663Z,99355.16
2023-11-01T17:06:11.566Z,99360.13
2023-11-01T17:08:39.369Z,99356.56
2023-11-01T17:11:07.047Z,99358.19
2023-11-01T17:13:36.132Z,99354.66
2023-11-01T17:16:04.074Z,99343.25
2023-11-01T17:18:32.056Z,99339.09
2023-11-01T17:20:59.972Z,99344.44
2023-11-01T17:23:27.983Z,99349.66
2023-11-01T17:26:31.619Z,99349.84
2023-11-01T17:29:01.712Z,99332.66
2023-11-01T17:31:40.476Z,99334.72
2023-11-01T17:34:09.231Z,99348.41
2023-11-01T17:36:37.542Z,99338.88
2023-11-01T17:39:07.223Z,99339.47
2023-11-01T17:41:55.319Z,99350.28
2023-11-01T17:44:25.970Z,99351.09
2023-11-01T17:47:00.007Z,99352.53
2023-11-01T17:49:54.304Z,99346.31
2023-11-01T17:52:36.757Z,99341.16
2023-11-01T17:55:07.766Z,99328.22
2023-11-01T17:57:36.702Z,99345.69
2023-11-01T18:00:07.576Z,99339.06
2023-11-01T18:03:08.341Z,99346.94
2023-11-01T18:05:37.970Z,99345.28
2023-11-01T18:08:09.825Z,99345.28
2023-11-01T18:10:42.271Z,99341.53
2023-11-01T18:13:19.616Z,99336.78
2023-11-01T18:15:49.955Z,99337.16
2023-11-01T18:18:32.725Z,99333.88
2023-11-01T18:21:07.856Z,99326.19
2023-11-01T18:23:36.024Z,99335.09
2023-11-01T18:26:08.939Z,99340.44
2023-11-01T18:28:41.622Z,99335.06
2023-11-01T18:31:23.132Z,99338.34
2023-11-01T18:33:56.128Z,99330.66
2023-11-01T18:36:24.620Z,99327.41
2023-11-01T18:38:55.163Z,99337.94
2023-11-01T18:41:30.845Z,99337.94
2023-11-01T18:43:58.765Z,99338.97
2023-11-01T18:46:33.187Z,99336.28
2023-11-01T18:49:00.961Z,99337.94
2023-11-01T18:51:57.935Z,99330.50
2023-11-01T18:54:39.227Z,99325.50
2023-11-01T18:57:09.203Z,99327.63
2023-11-01T18:59:37.174Z,99345.00
2023-11-01T19:02:10.860Z,99336.50
2023-11-01T19:04:38.772Z,99343.09
2023-11-01T19:07:08.214Z,99337.91
2023-11-01T19:09:36.118Z,99350.34
2023-11-01T19:12:04.351Z,99345.38
2023-11-01T19:14:38.687Z,99349.72
2023-11-01T19:17:08.197Z,99345.38
2023-11-01T19:19:35.947Z,99331.22
2023-11-01T19:22:04.061Z,99336.44
2023-11-01T19:24:31.815Z,99335.97
2023-11-01T19:27:02.640Z,99340.31
2023-11-01T19:29:34.513Z,99335.47
2023-11-01T19:32:02.198Z,99325.31
2023-11-01T19:34:31.795Z,99336.69
2023-11-01T19:37:00.043Z,99339.78
2023-11-01T19:39:27.730Z,99342.25
2023-11-01T19:41:55.484Z,99336.66
2023-11-01T19:44:23.205Z,99350.28
2023-11-01T19:46:50.902Z,99346.56
2023-11-01T19:49:18.561Z,99334.56
2023-11-01T19:51:47.619Z,99345.75
2023-11-01T19:54:15.395Z,99334.56
2023-11-01T19:56:43.515Z,99343.41
2023-11-01T19:59:12.234Z,99332.19
2023-11-01T20:01:40.489Z,99333.50
2023-11-01T20:04:08.329Z,99323.50
2023-11-01T20:06:36.086Z,99334.41
2023-11-01T20:09:07.922Z,99337.47
2023-11-01T20:11:35.693Z,99325.88
2023-11-01T20:14:03.756Z,99343.97
2023-11-01T20:16:31.504Z,99341.84
2023-11-01T20:19:01.042Z,99340.56
2023-11-01T20:21:28.785Z,99355.22
2023-11-01T20:23:56.482Z,99358.34
2023-11-01T20:26:25.655Z,99342.75
2023-11-01T20:28:53.498Z,99334.50
2023-11-01T20:31:21.238Z,99322.06
2023-11-01T20:33:50.810Z,99329.72
2023-11-01T20:36:18.781Z,99328.88
2023-11-01T20:38:46.524Z,99331.38
2023-11-01T20:41:14.940Z,99320.34
2023-11-01T20:43:43.998Z,99326.13
2023-11-01T20:46:12.781Z,99323.81
2023-11-01T20:48:40.768Z,99326.25
2023-11-01T20:51:12.934Z,99325.44
2023-11-01T20:53:42.945Z,99323.16
2023-11-01T20:56:11.077Z,99313.00
2023-11-01T20:58:38.748Z,99297.09
2023-11-01T21:01:07.957Z,99303.91
2023-11-01T21:03:35.785Z,99299.31
2023-11-01T21:06:04.110Z,99296.38
2023-11-01T21:08:33.786Z,99287.06
2023-11-01T21:11:01.462Z,99281.28
2023-11-01T21:13:31.395Z,99282.84
2023-11-01T21:16:00.846Z,99292.13
2023-11-01T21:18:31.996Z,99284.06
2023-11-01T21:21:01.735Z,99280.34
2023-11-01T21:23:29.807Z,99275.75
2023-11-01T21:25:57.641Z,99264.38
2023-11-01T21:28:25.295Z,99262.31
2023-11-01T21:30:53.008Z,99256.44
2023-11-01T21:33:22.479Z,99257.91
2023-11-01T21:35:51.761Z,99248.00
2023-11-01T21:38:19.503Z,99252.53
2023-11-01T21:40:47.784Z,99253.94
2023-11-01T21:43:18.176Z,99266.94
2023-11-01T21:45:52.718Z,99261.94
2023-11-01T21:48:23.314Z,99253.88
2023-11-01T21:50:58.424Z,99247.88
2023-11-01T21:53:29.540Z,99252.41
2023-11-01T21:55:59.679Z,99243.72
2023-11-01T21:58:29.238Z,99242.06
2023-11-01T22:00:59.861Z,99237.47
2023-11-01T22:03:38.691Z,99233.22
2023-11-01T22:06:12.992Z,99230.94
2023-11-01T22:09:02.389Z,99235.06
2023-11-01T22:11:32.018Z,99228.63
2023-11-01T22:14:01.213Z,99220.75
2023-11-01T22:16:30.508Z,99207.91
2023-11-01T22:19:03.542Z,99216.44
2023-11-01T22:21:36.640Z,99201.06
2023-11-01T22:24:05.243Z,99193.59
2023-11-01T22:26:33.703Z,99188.72
2023-11-01T22:29:03.308Z,99179.72
2023-11-01T22:31:52.022Z,99179.25
2023-11-01T22:34:22.147Z,99179.00
2023-11-01T22:36:53.488Z,99179.66
2023-11-01T22:39:40.047Z,99185.66
2023-11-01T22:42:10.074Z,99166.84
2023-11-01T22:44:37.810Z,99160.41
2023-11-01T22:47:06.006Z,99158.31
2023-11-01T22:49:33.708Z,99156.63
2023-11-01T22:52:02.954Z,99155.97
2023-11-01T22:54:30.789Z,99150.25
2023-11-01T22:56:59.134Z,99146.72
2023-11-01T23:02:19.039Z,99124.19
2023-11-01T23:04:46.809Z,99117.78
2023-11-01T23:07:16.165Z,99109.28
2023-11-01T23:09:43.933Z,99120.84
2023-11-01T23:12:12.516Z,99111.41
2023-11-01T23:14:40.231Z,99104.81
2023-11-01T23:17:09.220Z,99096.13
2023-11-01T23:19:37.022Z,99081.25
2023-11-01T23:22:04.887Z,99078.38
2023-11-01T23:24:33.880Z,99075.41
2023-11-01T23:27:05.847Z,99065.91
2023-11-01T23:29:35.342Z,99068.59
2023-11-01T23:32:08.359Z,99055.81
2023-11-01T23:34:45.430Z,99050.88
2023-11-01T23:37:23.793Z,99049.88
2023-11-01T23:39:53.025Z,99042.19
2023-11-01T23:42:21.834Z,99041.16
2023-11-01T23:44:50.242Z,99037.22
2023-11-01T23:47:38.794Z,99031.84
2023-11-01T23:50:13.487Z,99015.50
2023-11-01T23:52:41.981Z,99024.59
2023-11-01T23:55:11.401Z,99026.44
2023-11-01T23:57:39.157Z,99018.50
